createdAt,value
2016-03-19T00:00:09.233Z,1015.46
2016-03-19T00:01:09.251Z,1015.46
2016-03-19T00:02:09.254Z,1015.48
2016-03-19T00:03:09.256Z,1015.45
2016-03-19T00:04:09.259Z,1015.43
2016-03-19T00:05:09.278Z,1015.46
2016-03-19T00:06:09.264Z,1015.44
2016-03-19T00:07:09.283Z,1015.39
2016-03-19T00:08:09.300Z,1015.4
2016-03-19T00:09:09.288Z,1015.4
2016-03-19T00:10:09.306Z,1015.41
2016-03-19T00:11:09.309Z,1015.39
2016-03-19T00:12:09.311Z,1015.4
2016-03-19T00:13:09.314Z,1015.41
2016-03-19T00:14:09.317Z,1015.38
2016-03-19T00:15:09.335Z,1015.38
2016-03-19T00:16:09.338Z,1015.4
2016-03-19T00:17:09.341Z,1015.37
2016-03-19T00:18:09.359Z,1015.39
2016-03-19T00:19:09.363Z,1015.34
2016-03-19T00:20:09.365Z,1015.34
2016-03-19T00:21:09.383Z,1015.34
2016-03-19T00:22:09.370Z,1015.33
2016-03-19T00:23:09.388Z,1015.37
2016-03-19T00:24:09.391Z,1015.32
2016-03-19T00:25:09.394Z,1015.35
2016-03-19T00:26:09.396Z,1015.36
2016-03-19T00:27:09.415Z,1015.34
2016-03-19T00:28:09.418Z,1015.37
2016-03-19T00:29:09.420Z,1015.36
2016-03-19T00:30:09.423Z,1015.35
2016-03-19T00:31:09.442Z,1015.35
2016-03-19T00:32:09.445Z,1015.36
2016-03-19T00:33:09.447Z,1015.32
2016-03-19T00:34:09.450Z,1015.33
2016-03-19T00:35:09.453Z,1015.33
2016-03-19T00:36:09.455Z,1015.34
2016-03-19T00:37:09.473Z,1015.33
2016-03-19T00:38:09.475Z,1015.33
2016-03-19T00:39:09.479Z,1015.34
2016-03-19T00:40:09.512Z,1015.38
2016-03-19T00:41:09.500Z,1015.37
2016-03-19T00:42:09.502Z,1015.37
2016-03-19T00:43:09.505Z,1015.35
2016-03-19T00:44:09.507Z,1015.37
2016-03-19T00:45:09.526Z,1015.38
2016-03-19T00:46:09.529Z,1015.39
2016-03-19T00:47:09.531Z,1015.43
2016-03-19T00:48:09.550Z,1015.39
2016-03-19T00:49:09.552Z,1015.4
2016-03-19T00:50:09.555Z,1015.41
2016-03-19T00:51:09.558Z,1015.44
2016-03-19T00:52:09.561Z,1015.37
2016-03-19T00:53:09.563Z,1015.38
2016-03-19T00:54:09.582Z,1015.38
2016-03-19T00:55:09.585Z,1015.37
2016-03-19T00:56:09.587Z,1015.36
2016-03-19T00:57:09.590Z,1015.39
2016-03-19T00:58:09.593Z,1015.38
2016-03-19T00:59:09.610Z,1015.35
2016-03-19T01:00:09.629Z,1015.38
2016-03-19T01:01:09.616Z,1015.39
2016-03-19T01:02:09.618Z,1015.39
2016-03-19T01:03:09.637Z,1015.42
2016-03-19T01:04:09.639Z,1015.4
2016-03-19T01:05:09.659Z,1015.4
2016-03-19T01:06:09.661Z,1015.38
2016-03-19T01:07:09.664Z,1015.41
2016-03-19T01:08:09.667Z,1015.35
2016-03-19T01:09:09.660Z,1015.36
2016-03-19T01:10:09.653Z,1015.35
2016-03-19T01:11:09.647Z,1015.37
2016-03-19T01:12:09.655Z,1015.41
2016-03-19T01:13:09.648Z,1015.37
2016-03-19T01:14:09.646Z,1015.35
2016-03-19T01:15:09.645Z,1015.35
2016-03-19T01:16:09.661Z,1015.39
2016-03-19T01:17:09.660Z,1015.37
2016-03-19T01:18:09.659Z,1015.37
2016-03-19T01:19:09.660Z,1015.35
2016-03-19T01:20:09.662Z,1015.33
2016-03-19T01:21:09.678Z,1015.31
2016-03-19T01:22:09.680Z,1015.32
2016-03-19T01:23:09.682Z,1015.34
2016-03-19T01:24:09.684Z,1015.27
2016-03-19T01:25:09.702Z,1015.34
2016-03-19T01:26:09.705Z,1015.3
2016-03-19T01:27:09.707Z,1015.27
2016-03-19T01:28:09.709Z,1015.27
2016-03-19T01:29:09.728Z,1015.28
2016-03-19T01:30:09.731Z,1015.26
2016-03-19T01:31:09.749Z,1015.27
2016-03-19T01:32:09.736Z,1015.27
2016-03-19T01:33:09.738Z,1015.25
2016-03-19T01:34:09.756Z,1015.24
2016-03-19T01:35:09.759Z,1015.22
2016-03-19T01:36:09.762Z,1015.22
2016-03-19T01:37:09.781Z,1015.22
2016-03-19T01:38:09.783Z,1015.2
2016-03-19T01:39:09.786Z,1015.2
2016-03-19T01:40:09.788Z,1015.19
2016-03-19T01:41:09.807Z,1015.18
2016-03-19T01:42:09.794Z,1015.18
2016-03-19T01:43:09.812Z,1015.2
2016-03-19T01:44:09.815Z,1015.2
2016-03-19T01:45:09.832Z,1015.15
2016-03-19T01:46:09.821Z,1015.1
2016-03-19T01:47:09.838Z,1015.1
2016-03-19T01:48:09.841Z,1015.06
2016-03-19T01:49:09.844Z,1015.08
2016-03-19T01:50:09.846Z,1015.08
2016-03-19T01:51:09.865Z,1015.04
2016-03-19T01:52:09.867Z,1015
2016-03-19T01:53:09.871Z,1014.97
2016-03-19T01:54:09.873Z,1014.96
2016-03-19T01:55:09.891Z,1014.96
2016-03-19T01:56:09.893Z,1014.95
2016-03-19T01:57:09.896Z,1014.95
2016-03-19T01:58:09.899Z,1014.99
2016-03-19T01:59:09.901Z,1014.95
2016-03-19T02:00:09.921Z,1014.92
2016-03-19T02:01:09.923Z,1014.95
2016-03-19T02:02:09.926Z,1014.98
2016-03-19T02:03:09.928Z,1014.99
2016-03-19T02:04:09.931Z,1014.92
2016-03-19T02:05:09.950Z,1014.93
2016-03-19T02:06:09.953Z,1014.93
2016-03-19T02:07:09.955Z,1014.89
2016-03-19T02:08:09.957Z,1014.87
2016-03-19T02:09:09.976Z,1014.83
2016-03-19T02:10:09.978Z,1014.86
2016-03-19T02:11:09.981Z,1014.87
2016-03-19T02:12:10.000Z,1014.86
2016-03-19T02:13:10.002Z,1014.87
2016-03-19T02:14:10.005Z,1014.84
2016-03-19T02:15:10.007Z,1014.84
2016-03-19T02:16:10.011Z,1014.84
2016-03-19T02:17:10.013Z,1014.86
2016-03-19T02:18:10.031Z,1014.81
2016-03-19T02:19:10.034Z,1014.79
2016-03-19T02:20:10.037Z,1014.8
2016-03-19T02:21:10.039Z,1014.79
2016-03-19T02:22:10.057Z,1014.78
2016-03-19T02:23:10.060Z,1014.79
2016-03-19T02:24:10.063Z,1014.79
2016-03-19T02:25:10.065Z,1014.81
2016-03-19T02:26:10.084Z,1014.8
2016-03-19T02:27:10.149Z,1014.83
2016-03-19T02:28:10.090Z,1014.77
2016-03-19T02:29:10.092Z,1014.78
2016-03-19T02:30:10.094Z,1014.79
2016-03-19T02:31:10.112Z,1014.8
2016-03-19T02:32:10.115Z,1014.76
2016-03-19T02:33:10.118Z,1014.78
2016-03-19T02:34:10.137Z,1014.78
2016-03-19T02:35:10.140Z,1014.77
2016-03-19T02:36:10.142Z,1014.77
2016-03-19T02:37:10.144Z,1014.71
2016-03-19T02:38:10.147Z,1014.74
2016-03-19T02:39:10.166Z,1014.74
2016-03-19T02:40:10.169Z,1014.73
2016-03-19T02:41:10.171Z,1014.74
2016-03-19T02:42:10.174Z,1014.71
2016-03-19T02:43:10.177Z,1014.71
2016-03-19T02:44:10.195Z,1014.71
2016-03-19T02:45:10.197Z,1014.68
2016-03-19T02:46:10.200Z,1014.71
2016-03-19T02:47:10.203Z,1014.68
2016-03-19T02:48:10.205Z,1014.65
2016-03-19T02:49:10.224Z,1014.64
2016-03-19T02:50:10.227Z,1014.63
2016-03-19T02:51:10.230Z,1014.62
2016-03-19T02:52:10.232Z,1014.64
2016-03-19T02:53:10.250Z,1014.63
2016-03-19T02:54:10.253Z,1014.57
2016-03-19T02:55:10.256Z,1014.59
2016-03-19T02:56:10.259Z,1014.58
2016-03-19T02:57:10.276Z,1014.6
2016-03-19T02:58:10.279Z,1014.6
2016-03-19T02:59:10.282Z,1014.57
2016-03-19T03:00:10.284Z,1014.54
2016-03-19T03:01:10.288Z,1014.51
2016-03-19T03:02:10.306Z,1014.52
2016-03-19T03:03:10.309Z,1014.52
2016-03-19T03:04:10.311Z,1014.55
2016-03-19T03:05:10.314Z,1014.52
2016-03-19T03:06:10.317Z,1014.54
2016-03-19T03:07:10.334Z,1014.54
2016-03-19T03:08:10.337Z,1014.59
2016-03-19T03:09:10.340Z,1014.53
2016-03-19T03:10:10.342Z,1014.53
2016-03-19T03:11:10.361Z,1014.56
2016-03-19T03:12:10.380Z,1014.53
2016-03-19T03:13:10.367Z,1014.48
2016-03-19T03:14:10.369Z,1014.53
2016-03-19T03:15:10.371Z,1014.47
2016-03-19T03:16:10.390Z,1014.53
2016-03-19T03:17:10.393Z,1014.48
2016-03-19T03:18:10.396Z,1014.49
2016-03-19T03:19:10.398Z,1014.49
2016-03-19T03:20:10.417Z,1014.46
2016-03-19T03:21:10.419Z,1014.49
2016-03-19T03:22:10.421Z,1014.48
2016-03-19T03:23:10.424Z,1014.44
2016-03-19T03:24:10.427Z,1014.49
2016-03-19T03:25:10.446Z,1014.44
2016-03-19T03:26:10.448Z,1014.42
2016-03-19T03:27:10.467Z,1014.41
2016-03-19T03:28:10.454Z,1014.35
2016-03-19T03:29:10.472Z,1014.32
2016-03-19T03:30:10.475Z,1014.36
2016-03-19T03:31:10.478Z,1014.36
2016-03-19T03:32:10.481Z,1014.36
2016-03-19T03:33:10.484Z,1014.36
2016-03-19T03:34:10.501Z,1014.38
2016-03-19T03:35:10.504Z,1014.38
2016-03-19T03:36:10.506Z,1014.35
2016-03-19T03:37:10.509Z,1014.35
2016-03-19T03:38:10.528Z,1014.31
2016-03-19T03:39:10.531Z,1014.35
2016-03-19T03:40:10.533Z,1014.32
2016-03-19T03:41:10.536Z,1014.32
2016-03-19T03:42:10.554Z,1014.36
2016-03-19T03:43:10.557Z,1014.37
2016-03-19T03:44:10.559Z,1014.33
2016-03-19T03:45:10.561Z,1014.39
2016-03-19T03:46:10.564Z,1014.39
2016-03-19T03:47:10.583Z,1014.38
2016-03-19T03:48:10.585Z,1014.39
2016-03-19T03:49:10.588Z,1014.39
2016-03-19T03:50:10.590Z,1014.42
2016-03-19T03:51:10.594Z,1014.44
2016-03-19T03:52:10.612Z,1014.46
2016-03-19T03:53:10.615Z,1014.5
2016-03-19T03:54:10.618Z,1014.51
2016-03-19T03:55:10.635Z,1014.53
2016-03-19T03:56:10.623Z,1014.6
2016-03-19T03:57:10.640Z,1014.56
2016-03-19T03:58:10.644Z,1014.56
2016-03-19T03:59:10.646Z,1014.55
2016-03-19T04:00:10.648Z,1014.57
2016-03-19T04:01:10.667Z,1014.6
2016-03-19T04:02:10.670Z,1014.6
2016-03-19T04:03:10.673Z,1014.62
2016-03-19T04:04:10.675Z,1014.61
2016-03-19T04:05:10.679Z,1014.6
2016-03-19T04:06:10.697Z,1014.62
2016-03-19T04:07:10.699Z,1014.59
2016-03-19T04:08:10.702Z,1014.61
2016-03-19T04:09:10.705Z,1014.61
2016-03-19T04:10:10.723Z,1014.63
2016-03-19T04:11:10.725Z,1014.65
2016-03-19T04:12:10.728Z,1014.64
2016-03-19T04:13:10.730Z,1014.69
2016-03-19T04:14:10.734Z,1014.7
2016-03-19T04:15:10.752Z,1014.71
2016-03-19T04:16:10.755Z,1014.68
2016-03-19T04:17:10.758Z,1014.71
2016-03-19T04:18:10.760Z,1014.7
2016-03-19T04:19:10.778Z,1014.74
2016-03-19T04:20:10.781Z,1014.73
2016-03-19T04:21:10.784Z,1014.72
2016-03-19T04:22:10.786Z,1014.69
2016-03-19T04:23:10.788Z,1014.69
2016-03-19T04:24:10.807Z,1014.72
2016-03-19T04:25:10.810Z,1014.7
2016-03-19T04:26:10.812Z,1014.69
2016-03-19T04:27:10.832Z,1014.71
2016-03-19T04:28:10.818Z,1014.67
2016-03-19T04:29:10.837Z,1014.68
2016-03-19T04:30:10.839Z,1014.69
2016-03-19T04:31:10.842Z,1014.71
2016-03-19T04:32:10.845Z,1014.72
2016-03-19T04:33:10.847Z,1014.7
2016-03-19T04:34:10.865Z,1014.71
2016-03-19T04:35:10.867Z,1014.69
2016-03-19T04:36:10.871Z,1014.69
2016-03-19T04:37:10.873Z,1014.7
2016-03-19T04:38:10.892Z,1014.69
2016-03-19T04:39:10.895Z,1014.72
2016-03-19T04:40:10.897Z,1014.66
2016-03-19T04:41:10.900Z,1014.68
2016-03-19T04:42:10.902Z,1014.71
2016-03-19T04:43:10.922Z,1014.66
2016-03-19T04:44:10.924Z,1014.72
2016-03-19T04:45:10.927Z,1014.69
2016-03-19T04:46:10.929Z,1014.67
2016-03-19T04:47:10.947Z,1014.67
2016-03-19T04:48:10.950Z,1014.67
2016-03-19T04:49:10.952Z,1014.69
2016-03-19T04:50:10.956Z,1014.67
2016-03-19T04:51:10.958Z,1014.66
2016-03-19T04:52:10.961Z,1014.64
2016-03-19T04:53:10.979Z,1014.65
2016-03-19T04:54:10.997Z,1014.66
2016-03-19T04:55:11.000Z,1014.65
2016-03-19T04:56:11.002Z,1014.65
2016-03-19T04:57:11.005Z,1014.63
2016-03-19T04:58:11.008Z,1014.66
2016-03-19T04:59:11.010Z,1014.69
2016-03-19T05:00:11.013Z,1014.67
2016-03-19T05:01:11.016Z,1014.66
2016-03-19T05:02:11.035Z,1014.65
2016-03-19T05:03:11.038Z,1014.62
2016-03-19T05:04:11.040Z,1014.66
2016-03-19T05:05:11.042Z,1014.66
2016-03-19T05:06:11.062Z,1014.66
2016-03-19T05:07:11.064Z,1014.63
2016-03-19T05:08:11.066Z,1014.62
2016-03-19T05:09:11.069Z,1014.63
2016-03-19T05:10:11.072Z,1014.66
2016-03-19T05:11:11.075Z,1014.63
2016-03-19T05:12:11.092Z,1014.62
2016-03-19T05:13:11.096Z,1014.65
2016-03-19T05:14:11.098Z,1014.64
2016-03-19T05:15:11.101Z,1014.65
2016-03-19T05:16:11.119Z,1014.66
2016-03-19T05:17:11.122Z,1014.65
2016-03-19T05:18:11.124Z,1014.67
2016-03-19T05:19:11.127Z,1014.68
2016-03-19T05:20:11.145Z,1014.66
2016-03-19T05:21:11.149Z,1014.67
2016-03-19T05:22:11.151Z,1014.67
2016-03-19T05:23:11.154Z,1014.62
2016-03-19T05:24:11.156Z,1014.64
2016-03-19T05:25:11.160Z,1014.64
2016-03-19T05:26:11.177Z,1014.65
2016-03-19T05:27:11.179Z,1014.65
2016-03-19T05:28:11.183Z,1014.64
2016-03-19T05:29:11.185Z,1014.63
2016-03-19T05:30:11.204Z,1014.64
2016-03-19T05:31:11.206Z,1014.65
2016-03-19T05:32:11.224Z,1014.66
2016-03-19T05:33:11.212Z,1014.65
2016-03-19T05:34:11.214Z,1014.67
2016-03-19T05:35:11.233Z,1014.7
2016-03-19T05:36:11.235Z,1014.69
2016-03-19T05:37:11.238Z,1014.74
2016-03-19T05:38:11.240Z,1014.71
2016-03-19T05:39:11.243Z,1014.71
2016-03-19T05:40:11.262Z,1014.72
2016-03-19T05:41:11.264Z,1014.75
2016-03-19T05:42:11.267Z,1014.78
2016-03-19T05:43:11.285Z,1014.76
2016-03-19T05:44:11.273Z,1014.75
2016-03-19T05:45:11.291Z,1014.76
2016-03-19T05:46:11.294Z,1014.76
2016-03-19T05:47:11.297Z,1014.77
2016-03-19T05:48:11.299Z,1014.79
2016-03-19T05:49:11.317Z,1014.79
2016-03-19T05:50:11.319Z,1014.8
2016-03-19T05:51:11.323Z,1014.84
2016-03-19T05:52:11.325Z,1014.82
2016-03-19T05:53:11.328Z,1014.79
2016-03-19T05:54:11.346Z,1014.81
2016-03-19T05:55:11.349Z,1014.84
2016-03-19T05:56:11.352Z,1014.85
2016-03-19T05:57:11.354Z,1014.85
2016-03-19T05:58:11.373Z,1014.88
2016-03-19T05:59:11.376Z,1014.93
2016-03-19T06:00:11.379Z,1014.89
2016-03-19T06:01:11.381Z,1014.88
2016-03-19T06:02:11.383Z,1014.91
2016-03-19T06:03:11.402Z,1014.94
2016-03-19T06:04:11.404Z,1014.93
2016-03-19T06:05:11.407Z,1014.97
2016-03-19T06:06:11.409Z,1014.98
2016-03-19T06:07:11.412Z,1015.01
2016-03-19T06:08:11.431Z,1015.03
2016-03-19T06:09:11.433Z,1015.01
2016-03-19T06:10:11.437Z,1015
2016-03-19T06:11:11.439Z,1015
2016-03-19T06:12:11.441Z,1015.01
2016-03-19T06:13:11.460Z,1015
2016-03-19T06:14:11.462Z,1015
2016-03-19T06:15:11.465Z,1015.06
2016-03-19T06:16:11.467Z,1015.05
2016-03-19T06:17:11.470Z,1015.06
2016-03-19T06:18:11.489Z,1015.08
2016-03-19T06:19:11.491Z,1015.09
2016-03-19T06:20:11.494Z,1015.1
2016-03-19T06:21:11.497Z,1015.11
2016-03-19T06:22:11.516Z,1015.08
2016-03-19T06:23:11.518Z,1015.13
2016-03-19T06:24:11.521Z,1015.08
2016-03-19T06:25:11.523Z,1015.11
2016-03-19T06:26:11.527Z,1015.1
2016-03-19T06:27:11.544Z,1015.14
2016-03-19T06:28:11.546Z,1015.17
2016-03-19T06:29:11.549Z,1015.16
2016-03-19T06:30:11.552Z,1015.13
2016-03-19T06:31:11.558Z,1015.17
2016-03-19T06:32:11.576Z,1015.21
2016-03-19T06:33:11.579Z,1015.21
2016-03-19T06:34:11.582Z,1015.21
2016-03-19T06:35:11.584Z,1015.24
2016-03-19T06:36:11.587Z,1015.25
2016-03-19T06:37:11.606Z,1015.24
2016-03-19T06:38:11.608Z,1015.26
2016-03-19T06:39:11.611Z,1015.24
2016-03-19T06:40:11.613Z,1015.27
2016-03-19T06:41:11.617Z,1015.32
2016-03-19T06:42:11.619Z,1015.29
2016-03-19T06:43:11.637Z,1015.25
2016-03-19T06:44:11.640Z,1015.31
2016-03-19T06:45:11.658Z,1015.34
2016-03-19T06:46:11.661Z,1015.35
2016-03-19T06:47:11.663Z,1015.37
2016-03-19T06:48:11.667Z,1015.37
2016-03-19T06:49:11.669Z,1015.41
2016-03-19T06:50:11.672Z,1015.38
2016-03-19T06:51:11.674Z,1015.38
2016-03-19T06:52:11.692Z,1015.39
2016-03-19T06:53:11.695Z,1015.4
2016-03-19T06:54:11.697Z,1015.41
2016-03-19T06:55:11.700Z,1015.42
2016-03-19T06:56:11.703Z,1015.39
2016-03-19T06:57:11.721Z,1015.4
2016-03-19T06:58:11.724Z,1015.41
2016-03-19T06:59:11.727Z,1015.42
2016-03-19T07:00:11.730Z,1015.42
2016-03-19T07:01:11.732Z,1015.4
2016-03-19T07:02:11.751Z,1015.44
2016-03-19T07:03:11.753Z,1015.39
2016-03-19T07:04:11.757Z,1015.4
2016-03-19T07:05:11.759Z,1015.41
2016-03-19T07:06:11.762Z,1015.41
2016-03-19T07:07:11.780Z,1015.43
2016-03-19T07:08:11.782Z,1015.45
2016-03-19T07:09:11.785Z,1015.49
2016-03-19T07:10:11.788Z,1015.48
2016-03-19T07:11:11.790Z,1015.44
2016-03-19T07:12:11.809Z,1015.48
2016-03-19T07:13:11.811Z,1015.46
2016-03-19T07:14:11.814Z,1015.46
2016-03-19T07:15:11.817Z,1015.46
2016-03-19T07:16:11.819Z,1015.51
2016-03-19T07:17:11.839Z,1015.46
2016-03-19T07:18:11.841Z,1015.49
2016-03-19T07:19:11.844Z,1015.47
2016-03-19T07:20:11.861Z,1015.48
2016-03-19T07:21:11.864Z,1015.52
2016-03-19T07:22:11.867Z,1015.52
2016-03-19T07:23:11.870Z,1015.5
2016-03-19T07:24:11.872Z,1015.56
2016-03-19T07:25:11.875Z,1015.53
2016-03-19T07:26:11.894Z,1015.56
2016-03-19T07:27:11.896Z,1015.56
2016-03-19T07:28:11.899Z,1015.57
2016-03-19T07:29:11.902Z,1015.58
2016-03-19T07:30:11.905Z,1015.52
2016-03-19T07:31:11.922Z,1015.54
2016-03-19T07:32:11.925Z,1015.57
2016-03-19T07:33:11.928Z,1015.54
2016-03-19T07:34:11.930Z,1015.55
2016-03-19T07:35:11.949Z,1015.59
2016-03-19T07:36:11.952Z,1015.57
2016-03-19T07:37:11.954Z,1015.61
2016-03-19T07:38:11.957Z,1015.63
2016-03-19T07:39:11.960Z,1015.6
2016-03-19T07:40:11.978Z,1015.68
2016-03-19T07:41:11.981Z,1015.66
2016-03-19T07:42:11.983Z,1015.67
2016-03-19T07:43:11.987Z,1015.67
2016-03-19T07:44:11.989Z,1015.7
2016-03-19T07:45:12.007Z,1015.66
2016-03-19T07:46:12.009Z,1015.67
2016-03-19T07:47:12.012Z,1015.66
2016-03-19T07:48:12.015Z,1015.67
2016-03-19T07:49:12.017Z,1015.67
2016-03-19T07:50:12.036Z,1015.64
2016-03-19T07:51:12.039Z,1015.66
2016-03-19T07:52:12.042Z,1015.69
2016-03-19T07:53:12.044Z,1015.72
2016-03-19T07:54:12.063Z,1015.7
2016-03-19T07:55:12.065Z,1015.71
2016-03-19T07:56:12.068Z,1015.72
2016-03-19T07:57:12.070Z,1015.69
2016-03-19T07:58:12.073Z,1015.68
2016-03-19T07:59:12.091Z,1015.69
2016-03-19T08:00:12.094Z,1015.65
2016-03-19T08:01:12.096Z,1015.7
2016-03-19T08:02:12.099Z,1015.72
2016-03-19T08:03:12.102Z,1015.7
2016-03-19T08:04:12.120Z,1015.7
2016-03-19T08:05:12.124Z,1015.74
2016-03-19T08:06:12.126Z,1015.75
2016-03-19T08:07:12.129Z,1015.77
2016-03-19T08:08:12.131Z,1015.77
2016-03-19T08:09:12.149Z,1015.77
2016-03-19T08:10:12.151Z,1015.74
2016-03-19T08:11:12.154Z,1015.75
2016-03-19T08:12:12.157Z,1015.76
2016-03-19T08:13:12.160Z,1015.79
2016-03-19T08:14:12.179Z,1015.78
2016-03-19T08:15:12.182Z,1015.77
2016-03-19T08:16:12.184Z,1015.79
2016-03-19T08:17:12.203Z,1015.82
2016-03-19T08:18:12.205Z,1015.86
2016-03-19T08:19:12.208Z,1015.86
2016-03-19T08:20:12.211Z,1015.88
2016-03-19T08:21:12.214Z,1015.92
2016-03-19T08:22:12.231Z,1015.91
2016-03-19T08:23:12.234Z,1015.93
2016-03-19T08:24:12.237Z,1015.94
2016-03-19T08:25:12.255Z,1015.92
2016-03-19T08:26:12.258Z,1015.95
2016-03-19T08:27:12.261Z,1015.97
2016-03-19T08:28:12.264Z,1015.94
2016-03-19T08:29:12.266Z,1015.94
2016-03-19T08:30:12.284Z,1015.97
2016-03-19T08:31:12.287Z,1015.96
2016-03-19T08:32:12.305Z,1015.96
2016-03-19T08:33:12.293Z,1015.97
2016-03-19T08:34:12.311Z,1015.96
2016-03-19T08:35:12.314Z,1015.97
2016-03-19T08:36:12.316Z,1015.93
2016-03-19T08:37:12.318Z,1015.95
2016-03-19T08:38:12.337Z,1015.97
2016-03-19T08:39:12.340Z,1016.01
2016-03-19T08:40:12.342Z,1015.96
2016-03-19T08:41:12.360Z,1015.93
2016-03-19T08:42:12.363Z,1015.97
2016-03-19T08:43:12.413Z,1015.96
2016-03-19T08:44:12.368Z,1015.98
2016-03-19T08:45:12.371Z,1015.98
2016-03-19T08:46:12.390Z,1015.98
2016-03-19T08:47:12.392Z,1015.98
2016-03-19T08:48:12.395Z,1015.95
2016-03-19T08:49:12.397Z,1015.95
2016-03-19T08:50:12.417Z,1015.97
2016-03-19T08:51:12.419Z,1015.95
2016-03-19T08:52:12.421Z,1015.95
2016-03-19T08:53:12.440Z,1015.96
2016-03-19T08:54:12.442Z,1015.97
2016-03-19T08:55:12.445Z,1015.99
2016-03-19T08:56:12.447Z,1015.98
2016-03-19T08:57:12.451Z,1015.99
2016-03-19T08:58:12.485Z,1016
2016-03-19T08:59:12.471Z,1016.02
2016-03-19T09:00:12.475Z,1016.02
2016-03-19T09:01:12.493Z,1016.05
2016-03-19T09:02:12.496Z,1016.05
2016-03-19T09:03:12.498Z,1016.02
2016-03-19T09:04:12.501Z,1016.07
2016-03-19T09:05:12.519Z,1016.06
2016-03-19T09:06:12.521Z,1016.03
2016-03-19T09:07:12.525Z,1016.03
2016-03-19T09:08:12.527Z,1016.04
2016-03-19T09:09:12.546Z,1016.04
2016-03-19T09:10:12.548Z,1016.06
2016-03-19T09:11:12.551Z,1016.07
2016-03-19T09:12:12.553Z,1016.1
2016-03-19T09:13:12.571Z,1016.03
2016-03-19T09:14:12.573Z,1016.08
2016-03-19T09:15:12.577Z,1016.06
2016-03-19T09:16:12.579Z,1016.1
2016-03-19T09:17:12.598Z,1016.08
2016-03-19T09:18:12.601Z,1016.06
2016-03-19T09:19:12.603Z,1016.07
2016-03-19T09:20:12.622Z,1016.08
2016-03-19T09:21:12.624Z,1016.09
2016-03-19T09:22:12.628Z,1016.12
2016-03-19T09:23:12.630Z,1016.08
2016-03-19T09:24:12.648Z,1016.06
2016-03-19T09:25:12.650Z,1016.06
2016-03-19T09:26:12.653Z,1016.1
2016-03-19T09:27:12.672Z,1016.1
2016-03-19T09:28:12.674Z,1016.1
2016-03-19T09:29:12.677Z,1016.09
2016-03-19T09:30:12.680Z,1016.08
2016-03-19T09:31:12.683Z,1016.04
2016-03-19T09:32:12.701Z,1016.03
2016-03-19T09:33:12.704Z,1016.08
2016-03-19T09:34:12.707Z,1016.05
2016-03-19T09:35:12.709Z,1016.06
2016-03-19T09:36:12.727Z,1016.08
2016-03-19T09:37:12.730Z,1016.07
2016-03-19T09:38:12.733Z,1016.08
2016-03-19T09:39:12.751Z,1016.1
2016-03-19T09:40:12.754Z,1016.12
2016-03-19T09:41:12.772Z,1016.1
2016-03-19T09:42:12.774Z,1016.07
2016-03-19T09:43:12.793Z,1016.1
2016-03-19T09:44:12.780Z,1016.13
2016-03-19T09:45:12.782Z,1016.14
2016-03-19T09:46:12.785Z,1016.14
2016-03-19T09:47:12.803Z,1016.17
2016-03-19T09:48:12.807Z,1016.17
2016-03-19T09:49:12.809Z,1016.16
2016-03-19T09:50:12.828Z,1016.14
2016-03-19T09:51:12.831Z,1016.2
2016-03-19T09:52:12.833Z,1016.2
2016-03-19T09:53:12.836Z,1016.19
2016-03-19T09:54:12.853Z,1016.19
2016-03-19T09:55:12.856Z,1016.2
2016-03-19T09:56:12.859Z,1016.23
2016-03-19T09:57:12.877Z,1016.23
2016-03-19T09:58:12.942Z,1016.22
2016-03-19T09:59:12.883Z,1016.23
2016-03-19T10:00:12.902Z,1016.23
2016-03-19T10:01:12.905Z,1016.25
2016-03-19T10:02:12.907Z,1016.25
2016-03-19T10:03:12.910Z,1016.27
2016-03-19T10:04:12.912Z,1016.28
2016-03-19T10:05:12.930Z,1016.26
2016-03-19T10:06:12.933Z,1016.26
2016-03-19T10:07:12.936Z,1016.28
2016-03-19T10:08:12.938Z,1016.3
2016-03-19T10:09:12.957Z,1016.24
2016-03-19T10:10:12.959Z,1016.31
2016-03-19T10:11:12.962Z,1016.32
2016-03-19T10:12:12.965Z,1016.28
2016-03-19T10:13:12.999Z,1016.31
2016-03-19T10:14:12.986Z,1016.29
2016-03-19T10:15:12.974Z,1016.3
2016-03-19T10:16:12.961Z,1016.31
2016-03-19T10:17:12.964Z,1016.29
2016-03-19T10:18:12.951Z,1016.31
2016-03-19T10:19:12.937Z,1016.32
2016-03-19T10:20:12.950Z,1016.33
2016-03-19T10:21:12.947Z,1016.29
2016-03-19T10:22:12.945Z,1016.33
2016-03-19T10:23:12.942Z,1016.29
2016-03-19T10:24:12.954Z,1016.32
2016-03-19T10:25:12.954Z,1016.31
2016-03-19T10:26:12.955Z,1016.34
2016-03-19T10:27:12.972Z,1016.3
2016-03-19T10:28:12.973Z,1016.33
2016-03-19T10:29:12.974Z,1016.32
2016-03-19T10:30:12.975Z,1016.32
2016-03-19T10:31:12.993Z,1016.33
2016-03-19T10:32:12.995Z,1016.36
2016-03-19T10:33:12.997Z,1016.35
2016-03-19T10:34:12.999Z,1016.32
2016-03-19T10:35:13.017Z,1016.33
2016-03-19T10:36:13.019Z,1016.3
2016-03-19T10:37:13.021Z,1016.3
2016-03-19T10:38:13.039Z,1016.31
2016-03-19T10:39:13.042Z,1016.3
2016-03-19T10:40:13.044Z,1016.3
2016-03-19T10:41:13.047Z,1016.32
2016-03-19T10:42:13.049Z,1016.3
2016-03-19T10:43:13.099Z,1016.33
2016-03-19T10:44:13.070Z,1016.32
2016-03-19T10:45:13.073Z,1016.33
2016-03-19T10:46:13.092Z,1016.31
2016-03-19T10:47:13.094Z,1016.28
2016-03-19T10:48:13.097Z,1016.27
2016-03-19T10:49:13.115Z,1016.27
2016-03-19T10:50:13.118Z,1016.3
2016-03-19T10:51:13.121Z,1016.27
2016-03-19T10:52:13.123Z,1016.32
2016-03-19T10:53:13.141Z,1016.34
2016-03-19T10:54:13.144Z,1016.3
2016-03-19T10:55:13.147Z,1016.34
2016-03-19T10:56:13.150Z,1016.31
2016-03-19T10:57:13.168Z,1016.33
2016-03-19T10:58:13.187Z,1016.34
2016-03-19T10:59:13.173Z,1016.34
2016-03-19T11:00:13.176Z,1016.35
2016-03-19T11:01:13.195Z,1016.34
2016-03-19T11:02:13.197Z,1016.35
2016-03-19T11:03:13.215Z,1016.36
2016-03-19T11:04:13.218Z,1016.32
2016-03-19T11:05:13.220Z,1016.32
2016-03-19T11:06:13.223Z,1016.31
2016-03-19T11:07:13.226Z,1016.32
2016-03-19T11:08:13.244Z,1016.31
2016-03-19T11:09:13.247Z,1016.31
2016-03-19T11:10:13.250Z,1016.3
2016-03-19T11:11:13.253Z,1016.28
2016-03-19T11:12:13.270Z,1016.31
2016-03-19T11:13:13.273Z,1016.25
2016-03-19T11:14:13.276Z,1016.31
2016-03-19T11:15:13.294Z,1016.3
2016-03-19T11:16:13.297Z,1016.29
2016-03-19T11:17:13.300Z,1016.27
2016-03-19T11:18:13.302Z,1016.25
2016-03-19T11:19:13.321Z,1016.23
2016-03-19T11:20:13.323Z,1016.27
2016-03-19T11:21:13.327Z,1016.22
2016-03-19T11:22:13.329Z,1016.26
2016-03-19T11:23:13.347Z,1016.28
2016-03-19T11:24:13.349Z,1016.27
2016-03-19T11:25:13.352Z,1016.23
2016-03-19T11:26:13.371Z,1016.21
2016-03-19T11:27:13.373Z,1016.24
2016-03-19T11:28:13.377Z,1016.19
2016-03-19T11:29:13.395Z,1016.25
2016-03-19T11:30:13.398Z,1016.2
2016-03-19T11:31:13.400Z,1016.18
2016-03-19T11:32:13.403Z,1016.18
2016-03-19T11:33:13.420Z,1016.14
2016-03-19T11:34:13.423Z,1016.13
2016-03-19T11:35:13.426Z,1016.19
2016-03-19T11:36:13.429Z,1016.15
2016-03-19T11:37:13.432Z,1016.17
2016-03-19T11:38:13.451Z,1016.17
2016-03-19T11:39:13.453Z,1016.16
2016-03-19T11:40:13.471Z,1016.11
2016-03-19T11:41:13.458Z,1016.12
2016-03-19T11:42:13.476Z,1016.09
2016-03-19T11:43:13.478Z,1016.06
2016-03-19T11:44:13.497Z,1016.04
2016-03-19T11:45:13.499Z,1016.05
2016-03-19T11:46:13.502Z,1016.1
2016-03-19T11:47:13.506Z,1016.05
2016-03-19T11:48:13.524Z,1016.05
2016-03-19T11:49:13.527Z,1016.08
2016-03-19T11:50:13.530Z,1016.07
2016-03-19T11:51:13.532Z,1016.09
2016-03-19T11:52:13.549Z,1016.06
2016-03-19T11:53:13.553Z,1016.03
2016-03-19T11:54:13.555Z,1016.05
2016-03-19T11:55:13.574Z,1016.02
2016-03-19T11:56:13.576Z,1016.02
2016-03-19T11:57:13.579Z,1016.05
2016-03-19T11:58:13.598Z,1016.05
2016-03-19T11:59:13.600Z,1016.08
2016-03-19T12:00:13.603Z,1016.06
2016-03-19T12:01:13.606Z,1016.05
2016-03-19T12:02:13.623Z,1016.07
2016-03-19T12:03:13.627Z,1016.07
2016-03-19T12:04:13.629Z,1016.08
2016-03-19T12:05:13.648Z,1016.05
2016-03-19T12:06:13.650Z,1016.04
2016-03-19T12:07:13.653Z,1016.03
2016-03-19T12:08:13.656Z,1016.05